Time;durP1;ratioP1;P1;durP2;ratioP2;P2;SDS_P1;SDS_P2;PMS_P1;PMS_P2;Temp;Humidity;BMP_temperature;BMP_pressure;BME280_temperature;BME280_humidity;BME280_pressure;Samples;Min_cycle;Max_cycle;Signal;HPM_P1;HPM_P2
2022/05/08 00:00:28;;;;;;;26.05;11.55;;;;;;;;;;2082612;28;20273;-54
2022/05/08 00:01:29;;;;;;;18.25;10.52;;;;;;;;;;2082779;28;20234;-57
2022/05/08 00:02:29;;;;;;;22.92;10.75;;;;;;;;;;2082695;28;20636;-58
2022/05/08 00:03:29;;;;;;;18.70;9.70;;;;;;;;;;2082688;28;20183;-57
2022/05/08 00:04:30;;;;;;;18.30;10.23;;;;;;;;;;2081976;28;20219;-57
2022/05/08 00:05:30;;;;;;;22.40;9.75;;;;;;;;;;2083118;28;20200;-56
2022/05/08 00:06:30;;;;;;;19.98;9.77;;;;;;;;;;2083490;28;20176;-57
2022/05/08 00:07:31;;;;;;;21.00;10.18;;;;;;;;;;2083625;28;20179;-52
2022/05/08 00:08:31;;;;;;;20.58;8.75;;;;;;;;;;2082239;28;20578;-56
2022/05/08 00:09:31;;;;;;;21.30;9.55;;;;;;;;;;2082591;28;20215;-55
2022/05/08 00:10:32;;;;;;;13.90;9.25;;;;;;;;;;2082409;28;20567;-55
2022/05/08 00:11:32;;;;;;;19.50;9.10;;;;;;;;;;2083731;28;20168;-57
2022/05/08 00:12:32;;;;;;;23.48;9.65;;;;;;;;;;2083158;28;20640;-55
2022/05/08 00:13:33;;;;;;;21.55;10.02;;;;;;;;;;2083722;28;20176;-57
2022/05/08 00:14:34;;;;;;;20.40;9.20;;;;;;;;;;2073442;28;20173;-52
2022/05/08 00:15:34;;;;;;;19.70;9.18;;;;;;;;;;2073444;28;20185;-49
2022/05/08 00:16:34;;;;;;;17.10;9.52;;;;;;;;;;2081750;28;20180;-53
2022/05/08 00:17:34;;;;;;;23.58;10.02;;;;;;;;;;2080313;28;20166;-54
2022/05/08 00:18:35;;;;;;;21.33;9.10;;;;;;;;;;2074437;28;20184;-53
2022/05/08 00:19:35;;;;;;;20.48;9.60;;;;;;;;;;2082606;28;20172;-51
2022/05/08 00:20:35;;;;;;;20.40;9.75;;;;;;;;;;2082369;28;20192;-58
2022/05/08 00:21:36;;;;;;;20.75;8.93;;;;;;;;;;2082633;28;20168;-54
2022/05/08 00:22:42;;;;;;;25.63;10.05;;;;;;;;;;2083202;28;20168;-55
2022/05/08 00:23:42;;;;;;;26.45;10.93;;;;;;;;;;2084697;28;20169;-53
2022/05/08 00:24:42;;;;;;;19.70;8.57;;;;;;;;;;2083832;28;20164;-58
2022/05/08 00:25:42;;;;;;;24.38;11.48;;;;;;;;;;2083901;28;20180;-55
2022/05/08 00:26:43;;;;;;;18.27;9.35;;;;;;;;;;2083520;28;20172;-56
2022/05/08 00:27:43;;;;;;;20.73;9.23;;;;;;;;;;2084980;28;20206;-58
2022/05/08 00:28:43;;;;;;;18.55;9.05;;;;;;;;;;2091974;28;20188;-57
2022/05/08 00:29:43;;;;;;;19.95;9.80;;;;;;;;;;2091396;28;20159;-56
2022/05/08 00:30:44;;;;;;;17.75;9.25;;;;;;;;;;2091567;28;20172;-51
2022/05/08 00:31:44;;;;;;;23.48;9.63;;;;;;;;;;2091663;28;20160;-52
2022/05/08 00:32:45;;;;;;;21.73;9.88;;;;;;;;;;2083392;28;20192;-50
2022/05/08 00:33:45;;;;;;;24.92;10.00;;;;;;;;;;2082284;28;20194;-55
2022/05/08 00:34:45;;;;;;;19.85;9.98;;;;;;;;;;2082031;28;20167;-54
2022/05/08 00:35:45;;;;;;;21.55;9.00;;;;;;;;;;2082788;28;20181;-54
2022/05/08 00:36:46;;;;;;;25.33;10.43;;;;;;;;;;2082833;28;20160;-53
2022/05/08 00:37:46;;;;;;;18.17;9.07;;;;;;;;;;2082663;28;20256;-52
2022/05/08 00:38:46;;;;;;;21.20;9.38;;;;;;;;;;2083055;28;20173;-53
2022/05/08 00:39:46;;;;;;;19.35;9.13;;;;;;;;;;2081978;28;20688;-53
2022/05/08 00:40:47;;;;;;;15.40;8.63;;;;;;;;;;2082236;28;20180;-51
2022/05/08 00:41:47;;;;;;;23.98;9.80;;;;;;;;;;2082656;28;20172;-57
2022/05/08 00:42:47;;;;;;;21.50;8.13;;;;;;;;;;2082803;28;20196;-50
2022/05/08 00:43:48;;;;;;;20.08;7.78;;;;;;;;;;2082126;28;20170;-55
2022/05/08 00:44:48;;;;;;;23.15;8.50;;;;;;;;;;2073275;28;20180;-49
2022/05/08 00:45:48;;;;;;;13.70;7.65;;;;;;;;;;2081560;28;20278;-51
2022/05/08 00:46:48;;;;;;;18.45;9.13;;;;;;;;;;2081864;28;20172;-54
2022/05/08 00:47:49;;;;;;;16.95;8.65;;;;;;;;;;2081883;28;20734;-54
2022/05/08 00:48:49;;;;;;;15.45;8.50;;;;;;;;;;2082710;28;20626;-51
2022/05/08 00:49:49;;;;;;;19.85;8.57;;;;;;;;;;2082743;28;20200;-50
2022/05/08 00:50:51;;;;;;;17.63;7.95;;;;;;;;;;2082645;28;20163;-55
2022/05/08 00:51:51;;;;;;;18.60;7.93;;;;;;;;;;2082066;28;20578;-50
2022/05/08 00:52:51;;;;;;;24.13;8.15;;;;;;;;;;2082099;28;20172;-52
2022/05/08 00:53:53;;;;;;;22.80;8.70;;;;;;;;;;2082264;28;20516;-52
2022/05/08 00:54:53;;;;;;;25.35;8.75;;;;;;;;;;2082006;28;20188;-48
2022/05/08 00:55:55;;;;;;;23.40;8.60;;;;;;;;;;2082102;28;20207;-53
2022/05/08 00:56:57;;;;;;;22.45;8.40;;;;;;;;;;2081987;28;20675;-51
2022/05/08 00:58:00;;;;;;;22.73;9.55;;;;;;;;;;2082434;28;20195;-52
2022/05/08 00:59:00;;;;;;;19.88;8.40;;;;;;;;;;2082324;28;20176;-52
2022/05/08 01:00:03;;;;;;;16.27;8.68;;;;;;;;;;2082135;28;20205;-53
2022/05/08 01:01:04;;;;;;;19.40;9.13;;;;;;;;;;2082341;28;20171;-48
2022/05/08 01:02:04;;;;;;;23.27;8.50;;;;;;;;;;2081309;28;20629;-54
2022/05/08 01:03:05;;;;;;;20.75;8.70;;;;;;;;;;2081411;28;20168;-53
2022/05/08 01:04:05;;;;;;;19.55;8.30;;;;;;;;;;2081321;28;20168;-51
2022/05/08 01:05:05;;;;;;;23.88;9.73;;;;;;;;;;2083499;28;20215;-52
2022/05/08 01:06:07;;;;;;;23.85;8.48;;;;;;;;;;2089974;28;20172;-48
2022/05/08 01:07:07;;;;;;;21.85;8.77;;;;;;;;;;2082175;28;20174;-50
2022/05/08 01:08:08;;;;;;;18.17;8.40;;;;;;;;;;2082317;28;20173;-53
2022/05/08 01:09:09;;;;;;;21.40;9.35;;;;;;;;;;2081987;28;20188;-54
2022/05/08 01:10:09;;;;;;;19.83;8.38;;;;;;;;;;2081915;28;20637;-52
2022/05/08 01:11:09;;;;;;;19.50;8.75;;;;;;;;;;2081955;28;20242;-50
2022/05/08 01:12:10;;;;;;;29.65;10.68;;;;;;;;;;2081730;28;20180;-50
2022/05/08 01:13:10;;;;;;;18.65;9.63;;;;;;;;;;2082051;28;20177;-52
2022/05/08 01:14:12;;;;;;;19.70;9.80;;;;;;;;;;2081509;28;20176;-50
2022/05/08 01:15:14;;;;;;;20.55;9.82;;;;;;;;;;2081251;28;20661;-51
2022/05/08 01:16:15;;;;;;;20.75;9.70;;;;;;;;;;2081719;28;20183;-51
2022/05/08 01:17:15;;;;;;;18.13;9.38;;;;;;;;;;2081590;28;20184;-52
2022/05/08 01:18:16;;;;;;;27.77;10.68;;;;;;;;;;2081771;28;20211;-51
2022/05/08 01:19:16;;;;;;;22.80;10.77;;;;;;;;;;2080498;28;20212;-49
2022/05/08 01:20:17;;;;;;;21.92;9.25;;;;;;;;;;2081853;28;20277;-46
2022/05/08 01:21:21;;;;;;;18.00;9.00;;;;;;;;;;2081622;28;20215;-52
2022/05/08 01:22:21;;;;;;;23.58;9.85;;;;;;;;;;2081930;28;20271;-52
2022/05/08 01:23:22;;;;;;;23.98;9.77;;;;;;;;;;2081627;28;20164;-50
2022/05/08 01:24:22;;;;;;;24.08;10.23;;;;;;;;;;2080536;28;20196;-55
2022/05/08 01:25:23;;;;;;;18.77;9.18;;;;;;;;;;2080907;28;20188;-50
2022/05/08 01:26:27;;;;;;;20.90;9.55;;;;;;;;;;2081701;28;20161;-49
2022/05/08 01:27:27;;;;;;;22.48;9.32;;;;;;;;;;2081589;28;20188;-51
2022/05/08 01:28:29;;;;;;;26.67;10.30;;;;;;;;;;2082684;28;20191;-50
2022/05/08 01:29:29;;;;;;;18.98;9.27;;;;;;;;;;2080727;28;20692;-49
2022/05/08 01:30:29;;;;;;;28.88;9.88;;;;;;;;;;2079712;28;20196;-51
2022/05/08 01:31:30;;;;;;;21.02;10.55;;;;;;;;;;2081628;28;20164;-52
2022/05/08 01:32:30;;;;;;;20.77;10.50;;;;;;;;;;2081543;28;20169;-50
2022/05/08 01:33:31;;;;;;;20.05;9.68;;;;;;;;;;2081579;28;20575;-50
2022/05/08 01:34:31;;;;;;;16.17;8.82;;;;;;;;;;2081053;28;20600;-53
2022/05/08 01:35:32;;;;;;;24.23;9.52;;;;;;;;;;2081495;28;20199;-52
2022/05/08 01:36:32;;;;;;;21.73;9.43;;;;;;;;;;2080900;28;20180;-51
2022/05/08 01:37:33;;;;;;;21.25;9.18;;;;;;;;;;2080779;28;20203;-50
2022/05/08 01:38:34;;;;;;;19.90;9.50;;;;;;;;;;2081152;28;20601;-49
2022/05/08 01:39:35;;;;;;;19.80;8.95;;;;;;;;;;2081497;28;20695;-53
2022/05/08 01:40:35;;;;;;;24.15;10.75;;;;;;;;;;2081314;28;20191;-50
2022/05/08 01:41:36;;;;;;;27.08;9.73;;;;;;;;;;2081425;28;20184;-48
2022/05/08 01:42:36;;;;;;;20.67;10.25;;;;;;;;;;2080787;28;20180;-49
2022/05/08 01:43:37;;;;;;;20.00;9.55;;;;;;;;;;2081037;28;20221;-52
2022/05/08 01:44:37;;;;;;;22.85;9.00;;;;;;;;;;2080913;28;20247;-48
2022/05/08 01:45:37;;;;;;;18.25;9.60;;;;;;;;;;2081725;28;20172;-49
2022/05/08 01:46:38;;;;;;;19.20;9.25;;;;;;;;;;2081827;28;20645;-49
2022/05/08 01:48:57;;;;;;;21.77;9.10;;;;;;;;;;2079810;28;20180;-54
2022/05/08 01:49:57;;;;;;;20.27;10.20;;;;;;;;;;2081375;28;20176;-50
2022/05/08 01:50:59;;;;;;;23.80;9.20;;;;;;;;;;2081613;28;20211;-51
2022/05/08 01:51:59;;;;;;;27.02;10.02;;;;;;;;;;2081788;28;20172;-52
2022/05/08 01:52:59;;;;;;;15.27;9.65;;;;;;;;;;2082007;28;20164;-50
2022/05/08 01:54:01;;;;;;;17.98;9.80;;;;;;;;;;2081932;28;20696;-51
2022/05/08 01:55:02;;;;;;;24.98;9.98;;;;;;;;;;2082403;28;20703;-54
2022/05/08 01:56:05;;;;;;;24.13;10.60;;;;;;;;;;2082453;28;20169;-54
2022/05/08 01:57:05;;;;;;;23.90;10.55;;;;;;;;;;2082184;28;20251;-50
2022/05/08 01:58:05;;;;;;;26.02;10.55;;;;;;;;;;2082117;28;20172;-52
2022/05/08 01:59:07;;;;;;;20.40;10.02;;;;;;;;;;2081691;28;20637;-58
2022/05/08 02:00:07;;;;;;;27.27;10.23;;;;;;;;;;2081433;28;20191;-51
2022/05/08 02:01:14;;;;;;;19.67;9.70;;;;;;;;;;2081839;28;20206;-52
2022/05/08 02:02:15;;;;;;;23.48;10.27;;;;;;;;;;2081583;28;20168;-52
2022/05/08 02:03:15;;;;;;;23.63;10.32;;;;;;;;;;2081997;28;20656;-52
2022/05/08 02:04:16;;;;;;;19.75;9.23;;;;;;;;;;2081303;28;20168;-55
2022/05/08 02:05:16;;;;;;;25.02;9.93;;;;;;;;;;2082582;28;20199;-55
2022/05/08 02:06:18;;;;;;;27.17;9.95;;;;;;;;;;2081966;28;20172;-53
2022/05/08 02:07:20;;;;;;;24.30;10.73;;;;;;;;;;2082431;28;20161;-55
2022/05/08 02:08:20;;;;;;;23.35;10.65;;;;;;;;;;2081092;28;20176;-52
2022/05/08 02:09:26;;;;;;;20.45;9.70;;;;;;;;;;2081196;28;20175;-54
2022/05/08 02:10:27;;;;;;;24.67;9.82;;;;;;;;;;2074000;28;20216;-53
2022/05/08 02:11:27;;;;;;;24.20;10.10;;;;;;;;;;2074080;28;20173;-55
2022/05/08 02:12:27;;;;;;;21.92;9.55;;;;;;;;;;2073915;28;20157;-56
2022/05/08 02:13:28;;;;;;;27.85;10.60;;;;;;;;;;2074175;28;20173;-53
2022/05/08 02:14:28;;;;;;;24.77;11.25;;;;;;;;;;2083721;28;20767;-50
2022/05/08 02:15:31;;;;;;;26.35;11.02;;;;;;;;;;2089162;28;20233;-52
2022/05/08 02:16:32;;;;;;;21.45;9.90;;;;;;;;;;2073461;28;20184;-50
2022/05/08 02:17:33;;;;;;;26.35;10.05;;;;;;;;;;2081248;28;20176;-49
2022/05/08 02:18:33;;;;;;;19.77;9.70;;;;;;;;;;2081007;28;20263;-56
2022/05/08 02:19:33;;;;;;;23.65;10.07;;;;;;;;;;2081099;28;20255;-54
2022/05/08 02:20:34;;;;;;;20.17;9.40;;;;;;;;;;2082073;28;20198;-53
2022/05/08 02:21:34;;;;;;;25.42;10.38;;;;;;;;;;2084253;28;20210;-49
2022/05/08 02:22:35;;;;;;;19.33;10.93;;;;;;;;;;2083853;28;20214;-55
2022/05/08 02:23:35;;;;;;;29.90;11.00;;;;;;;;;;2083859;28;20636;-55
2022/05/08 02:24:35;;;;;;;29.67;11.13;;;;;;;;;;2083657;28;20167;-53
2022/05/08 02:25:36;;;;;;;25.40;11.20;;;;;;;;;;2083970;28;20714;-53
2022/05/08 02:26:36;;;;;;;27.52;11.27;;;;;;;;;;2084307;28;20193;-53
2022/05/08 02:27:40;;;;;;;22.23;10.45;;;;;;;;;;2083712;28;20180;-50
2022/05/08 02:28:40;;;;;;;25.92;10.73;;;;;;;;;;2084466;28;20582;-55
2022/05/08 02:29:40;;;;;;;25.23;11.57;;;;;;;;;;2084885;28;20168;-55
2022/05/08 02:30:41;;;;;;;22.90;10.77;;;;;;;;;;2085540;28;20230;-52
2022/05/08 02:31:41;;;;;;;30.98;11.50;;;;;;;;;;2085541;28;20160;-55
2022/05/08 02:32:42;;;;;;;24.42;11.70;;;;;;;;;;2085328;28;20160;-54
2022/05/08 02:33:42;;;;;;;22.42;11.05;;;;;;;;;;2084878;28;20532;-53
2022/05/08 02:34:45;;;;;;;24.40;11.38;;;;;;;;;;2084733;28;20652;-52
2022/05/08 02:35:45;;;;;;;24.80;11.02;;;;;;;;;;2084636;28;20198;-55
2022/05/08 02:36:46;;;;;;;23.92;11.35;;;;;;;;;;2084740;28;20179;-55
2022/05/08 02:37:52;;;;;;;22.08;10.90;;;;;;;;;;2085670;28;20179;-56
2022/05/08 02:38:52;;;;;;;22.48;10.95;;;;;;;;;;2085050;28;20641;-56
2022/05/08 02:39:53;;;;;;;35.10;11.98;;;;;;;;;;2084484;28;20561;-57
2022/05/08 02:40:53;;;;;;;20.73;11.80;;;;;;;;;;2084442;28;20704;-54
2022/05/08 02:41:53;;;;;;;28.85;11.55;;;;;;;;;;2085162;28;20172;-56
2022/05/08 02:42:54;;;;;;;22.65;10.95;;;;;;;;;;2085085;28;20176;-56
2022/05/08 02:43:54;;;;;;;23.67;10.93;;;;;;;;;;2084946;28;20171;-54
2022/05/08 02:44:54;;;;;;;27.75;10.93;;;;;;;;;;2083525;28;20612;-53
2022/05/08 02:45:59;;;;;;;37.05;11.02;;;;;;;;;;2083505;28;20251;-50
2022/05/08 02:46:59;;;;;;;22.17;10.25;;;;;;;;;;2083390;28;20219;-52
2022/05/08 02:48:00;;;;;;;23.50;11.07;;;;;;;;;;2075127;28;20184;-49
2022/05/08 02:49:00;;;;;;;22.73;11.27;;;;;;;;;;2075144;28;20180;-49
2022/05/08 02:50:00;;;;;;;20.33;11.13;;;;;;;;;;2083051;28;20564;-49
2022/05/08 02:51:01;;;;;;;23.08;10.65;;;;;;;;;;2083532;28;20653;-50
2022/05/08 02:52:01;;;;;;;23.67;10.75;;;;;;;;;;2083925;28;20161;-53
2022/05/08 02:53:02;;;;;;;31.55;10.77;;;;;;;;;;2083262;28;20218;-49
2022/05/08 02:54:02;;;;;;;22.47;11.00;;;;;;;;;;2082495;28;20218;-49
2022/05/08 02:58:32;;;;;;;25.08;10.52;;;;;;;;;;2083943;28;20232;-51
2022/05/08 02:59:07;;;;;;;28.45;11.70;;;;;;;;;;2083605;28;20172;-49
2022/05/08 03:00:08;;;;;;;25.70;11.70;;;;;;;;;;2083921;28;20605;-48
2022/05/08 03:01:08;;;;;;;22.45;11.43;;;;;;;;;;2083857;28;20672;-50
2022/05/08 03:02:09;;;;;;;25.65;11.23;;;;;;;;;;2083764;28;20180;-52
2022/05/08 03:03:10;;;;;;;21.38;11.55;;;;;;;;;;2083707;28;20168;-51
2022/05/08 03:04:10;;;;;;;25.35;10.30;;;;;;;;;;2083529;28;20172;-50
2022/05/08 03:05:12;;;;;;;23.77;12.05;;;;;;;;;;2084143;28;20207;-49
2022/05/08 03:06:13;;;;;;;25.60;12.13;;;;;;;;;;2084020;28;20195;-50
2022/05/08 03:07:14;;;;;;;23.90;11.18;;;;;;;;;;2083746;28;20652;-50
2022/05/08 03:08:15;;;;;;;30.70;11.80;;;;;;;;;;2083912;28;20188;-50
2022/05/08 03:09:15;;;;;;;25.50;11.70;;;;;;;;;;2083475;28;20528;-51
2022/05/08 03:10:15;;;;;;;31.83;12.25;;;;;;;;;;2083565;28;20192;-51
2022/05/08 03:11:32;;;;;;;22.60;10.85;;;;;;;;;;2083853;28;20567;-49
2022/05/08 03:12:32;;;;;;;29.92;12.07;;;;;;;;;;2083828;28;20175;-55
2022/05/08 03:13:35;;;;;;;31.17;11.55;;;;;;;;;;2083798;28;20728;-52
2022/05/08 03:14:36;;;;;;;31.15;11.88;;;;;;;;;;2083097;28;20230;-49
2022/05/08 03:15:36;;;;;;;21.38;10.63;;;;;;;;;;2083494;28;20187;-55
2022/05/08 03:16:40;;;;;;;32.35;12.35;;;;;;;;;;2083709;28;20200;-53
2022/05/08 03:17:40;;;;;;;27.63;11.87;;;;;;;;;;2083837;28;20176;-52
2022/05/08 03:18:41;;;;;;;25.05;12.25;;;;;;;;;;2083375;28;20586;-52
2022/05/08 03:19:41;;;;;;;23.35;11.70;;;;;;;;;;2083272;28;20535;-50
2022/05/08 03:20:42;;;;;;;24.15;11.18;;;;;;;;;;2083678;28;20544;-49
2022/05/08 03:21:42;;;;;;;28.27;12.27;;;;;;;;;;2083671;28;20160;-53
2022/05/08 03:22:43;;;;;;;25.85;12.27;;;;;;;;;;2083900;28;20168;-50
2022/05/08 03:23:43;;;;;;;20.70;10.88;;;;;;;;;;2083237;28;20678;-52
2022/05/08 03:24:44;;;;;;;20.30;10.73;;;;;;;;;;2082544;28;20645;-51
2022/05/08 03:25:44;;;;;;;31.20;11.85;;;;;;;;;;2083814;28;20548;-53
2022/05/08 03:26:44;;;;;;;30.27;12.77;;;;;;;;;;2083561;28;20164;-49
2022/05/08 03:27:45;;;;;;;22.50;11.43;;;;;;;;;;2086303;28;20687;-48
2022/05/08 03:28:45;;;;;;;25.65;11.57;;;;;;;;;;2090301;28;20170;-48
2022/05/08 03:29:46;;;;;;;27.83;11.27;;;;;;;;;;2082788;28;20600;-52
2022/05/08 03:30:46;;;;;;;24.95;11.13;;;;;;;;;;2083005;28;20230;-50
2022/05/08 03:31:46;;;;;;;25.58;12.13;;;;;;;;;;2083077;28;20169;-54
2022/05/08 03:32:49;;;;;;;26.67;10.98;;;;;;;;;;2081670;28;20168;-51
2022/05/08 03:33:49;;;;;;;30.52;11.07;;;;;;;;;;2082500;28;20207;-51
2022/05/08 03:34:50;;;;;;;23.42;11.00;;;;;;;;;;2081539;28;20640;-52
2022/05/08 03:35:50;;;;;;;17.73;10.43;;;;;;;;;;2081858;28;20239;-51
2022/05/08 03:36:50;;;;;;;22.63;11.18;;;;;;;;;;2082409;28;20583;-50
2022/05/08 03:37:51;;;;;;;22.17;10.93;;;;;;;;;;2081558;28;20629;-51
2022/05/08 03:38:51;;;;;;;20.00;11.35;;;;;;;;;;2081724;28;20168;-49
2022/05/08 03:39:51;;;;;;;24.25;11.65;;;;;;;;;;2082361;28;20177;-50
2022/05/08 03:40:55;;;;;;;29.00;12.57;;;;;;;;;;2082575;28;20243;-54
2022/05/08 03:41:55;;;;;;;29.15;11.45;;;;;;;;;;2082511;28;20179;-51
2022/05/08 03:42:55;;;;;;;27.77;11.00;;;;;;;;;;2081870;28;20363;-51
2022/05/08 03:43:56;;;;;;;25.10;11.07;;;;;;;;;;2078402;28;20222;-48
2022/05/08 03:44:56;;;;;;;23.45;10.57;;;;;;;;;;2081518;28;20184;-52
2022/05/08 03:45:57;;;;;;;23.95;11.50;;;;;;;;;;2081672;28;20164;-52
2022/05/08 03:46:57;;;;;;;26.83;12.35;;;;;;;;;;2081836;28;20179;-53
2022/05/08 03:48:00;;;;;;;29.75;12.13;;;;;;;;;;2081596;28;20194;-49
2022/05/08 03:49:01;;;;;;;21.25;11.35;;;;;;;;;;2082172;28;20196;-54
2022/05/08 03:50:02;;;;;;;25.00;11.57;;;;;;;;;;2082086;28;20188;-53
2022/05/08 03:51:03;;;;;;;24.60;10.65;;;;;;;;;;2082511;28;20211;-54
2022/05/08 03:52:04;;;;;;;26.20;12.20;;;;;;;;;;2081887;28;20177;-49
2022/05/08 03:53:04;;;;;;;26.90;10.57;;;;;;;;;;2082457;28;20169;-52
2022/05/08 03:54:08;;;;;;;26.25;11.20;;;;;;;;;;2081787;28;20556;-53
2022/05/08 03:55:09;;;;;;;34.67;12.13;;;;;;;;;;2082554;28;20795;-50
2022/05/08 03:56:09;;;;;;;22.15;11.82;;;;;;;;;;2082353;28;20183;-53
2022/05/08 03:57:11;;;;;;;20.92;11.10;;;;;;;;;;2082307;28;20578;-48
2022/05/08 03:58:11;;;;;;;25.33;11.85;;;;;;;;;;2082498;28;20176;-50
2022/05/08 03:59:11;;;;;;;20.45;10.75;;;;;;;;;;2082693;28;20652;-51
2022/05/08 04:00:12;;;;;;;24.03;11.50;;;;;;;;;;2082344;28;20192;-50
2022/05/08 04:01:15;;;;;;;22.40;11.05;;;;;;;;;;2082310;28;20212;-53
2022/05/08 04:02:15;;;;;;;25.73;11.73;;;;;;;;;;2081634;28;20179;-52
2022/05/08 04:03:16;;;;;;;24.20;11.25;;;;;;;;;;2082874;28;20195;-50
2022/05/08 04:04:17;;;;;;;28.13;11.70;;;;;;;;;;2081783;28;20819;-47
2022/05/08 04:05:17;;;;;;;24.63;10.40;;;;;;;;;;2082150;28;20586;-49
2022/05/08 04:06:17;;;;;;;24.90;11.18;;;;;;;;;;2082209;28;20177;-50
2022/05/08 04:07:17;;;;;;;24.67;12.05;;;;;;;;;;2081515;28;20171;-50
2022/05/08 04:08:23;;;;;;;27.60;11.32;;;;;;;;;;2075782;28;20157;-53
2022/05/08 04:09:23;;;;;;;27.88;11.23;;;;;;;;;;2073318;28;20185;-52
2022/05/08 04:10:23;;;;;;;25.35;10.52;;;;;;;;;;2072927;28;20203;-49
2022/05/08 04:11:27;;;;;;;28.27;11.57;;;;;;;;;;2073585;28;20207;-49
2022/05/08 04:12:28;;;;;;;24.33;12.15;;;;;;;;;;2073815;28;20681;-54
2022/05/08 04:13:28;;;;;;;24.25;11.90;;;;;;;;;;2073514;28;20176;-50
2022/05/08 04:14:28;;;;;;;26.58;12.00;;;;;;;;;;2073706;28;20177;-55
2022/05/08 04:16:47;;;;;;;25.58;11.75;;;;;;;;;;2073459;28;20172;-50
2022/05/08 04:17:48;;;;;;;24.15;10.90;;;;;;;;;;2073794;28;20545;-51
2022/05/08 04:18:48;;;;;;;24.50;10.38;;;;;;;;;;2079458;28;20175;-49
2022/05/08 04:19:48;;;;;;;24.58;12.55;;;;;;;;;;2081766;28;20246;-55
2022/05/08 04:20:49;;;;;;;22.90;11.55;;;;;;;;;;2074250;28;20728;-49
2022/05/08 04:21:49;;;;;;;19.00;10.88;;;;;;;;;;2073112;28;20184;-49
2022/05/08 04:24:17;;;;;;;25.00;10.93;;;;;;;;;;2086969;28;20191;-49
2022/05/08 04:25:17;;;;;;;26.83;12.27;;;;;;;;;;2081371;28;20192;-53
2022/05/08 04:26:18;;;;;;;18.83;11.50;;;;;;;;;;2081030;28;20183;-52
2022/05/08 04:27:18;;;;;;;27.15;10.95;;;;;;;;;;2081838;28;20172;-51
2022/05/08 04:28:19;;;;;;;27.40;11.07;;;;;;;;;;2089785;28;20314;-50
2022/05/08 04:29:19;;;;;;;16.88;9.40;;;;;;;;;;2090759;28;20172;-54
2022/05/08 04:30:19;;;;;;;18.98;10.93;;;;;;;;;;2090895;28;20190;-53
2022/05/08 04:31:20;;;;;;;23.52;11.35;;;;;;;;;;2090756;28;20215;-51
2022/05/08 04:32:20;;;;;;;22.08;11.00;;;;;;;;;;2087402;28;20165;-55
2022/05/08 04:33:20;;;;;;;18.00;11.30;;;;;;;;;;2081716;28;20175;-51
2022/05/08 04:34:20;;;;;;;24.80;10.68;;;;;;;;;;2082041;28;20196;-51
2022/05/08 04:35:21;;;;;;;25.05;11.85;;;;;;;;;;2082457;28;20210;-53
2022/05/08 04:36:22;;;;;;;26.58;10.75;;;;;;;;;;2082318;28;20172;-53
2022/05/08 04:37:22;;;;;;;19.60;9.73;;;;;;;;;;2082180;28;20671;-51
2022/05/08 04:38:22;;;;;;;18.05;10.30;;;;;;;;;;2082202;28;20646;-53
2022/05/08 04:39:22;;;;;;;27.02;12.15;;;;;;;;;;2077139;28;20181;-49
2022/05/08 04:40:24;;;;;;;20.92;9.60;;;;;;;;;;2073708;28;20518;-51
2022/05/08 04:41:24;;;;;;;20.33;10.10;;;;;;;;;;2074001;28;20173;-54
2022/05/08 04:42:26;;;;;;;21.77;10.75;;;;;;;;;;2073924;28;20599;-52
2022/05/08 04:43:26;;;;;;;21.25;10.85;;;;;;;;;;2073381;28;20177;-56
2022/05/08 04:44:26;;;;;;;21.25;10.75;;;;;;;;;;2072265;28;20170;-52
2022/05/08 04:45:26;;;;;;;22.02;9.93;;;;;;;;;;2072667;28;20216;-49
2022/05/08 04:46:27;;;;;;;24.25;10.00;;;;;;;;;;2073589;28;20490;-54
2022/05/08 04:47:30;;;;;;;18.55;9.38;;;;;;;;;;2073453;28;20316;-52
2022/05/08 04:48:31;;;;;;;14.73;9.80;;;;;;;;;;2073259;28;20177;-50
2022/05/08 04:49:31;;;;;;;19.08;9.80;;;;;;;;;;2074437;28;20514;-49
2022/05/08 04:50:31;;;;;;;19.42;9.63;;;;;;;;;;2081434;28;20179;-53
2022/05/08 04:51:31;;;;;;;19.10;9.30;;;;;;;;;;2081542;28;20606;-50
2022/05/08 04:52:32;;;;;;;17.73;9.77;;;;;;;;;;2081478;28;20206;-53
2022/05/08 04:53:32;;;;;;;27.45;9.60;;;;;;;;;;2081358;28;20548;-48
2022/05/08 04:54:32;;;;;;;23.63;10.40;;;;;;;;;;2080471;28;20296;-54
2022/05/08 04:55:32;;;;;;;25.63;10.55;;;;;;;;;;2080823;28;20186;-54
2022/05/08 04:56:33;;;;;;;21.00;9.40;;;;;;;;;;2081534;28;20172;-51
2022/05/08 04:57:33;;;;;;;17.27;8.63;;;;;;;;;;2081562;28;20174;-55
2022/05/08 04:58:33;;;;;;;18.58;9.70;;;;;;;;;;2081223;28;20214;-53
2022/05/08 04:59:33;;;;;;;19.45;9.00;;;;;;;;;;2081631;28;20188;-48
2022/05/08 05:00:34;;;;;;;15.27;8.63;;;;;;;;;;2080755;28;20208;-58
2022/05/08 05:01:35;;;;;;;23.48;10.05;;;;;;;;;;2080950;28;20267;-49
2022/05/08 05:02:35;;;;;;;26.45;9.57;;;;;;;;;;2081412;28;20169;-53
2022/05/08 05:03:35;;;;;;;25.38;9.32;;;;;;;;;;2081479;28;20192;-50
2022/05/08 05:04:36;;;;;;;21.40;9.10;;;;;;;;;;2073220;28;20200;-53
2022/05/08 05:05:36;;;;;;;20.13;8.63;;;;;;;;;;2081326;28;20707;-49
2022/05/08 05:06:36;;;;;;;18.98;8.98;;;;;;;;;;2081378;28;20605;-51
2022/05/08 05:07:38;;;;;;;18.17;8.68;;;;;;;;;;2081356;28;20787;-49
2022/05/08 05:08:38;;;;;;;13.93;7.50;;;;;;;;;;2081474;28;20165;-54
2022/05/08 05:09:39;;;;;;;16.52;7.70;;;;;;;;;;2081019;28;20514;-48
2022/05/08 05:10:40;;;;;;;21.20;8.75;;;;;;;;;;2056287;22;1055105;-55
2022/05/08 05:11:40;;;;;;;20.60;8.68;;;;;;;;;;2077643;28;20193;-54
2022/05/08 05:12:42;;;;;;;13.13;8.05;;;;;;;;;;2081508;28;20580;-50
2022/05/08 05:13:42;;;;;;;15.65;8.68;;;;;;;;;;2075178;28;20204;-51
2022/05/08 05:14:42;;;;;;;18.63;8.63;;;;;;;;;;2080979;28;20259;-53
2022/05/08 05:15:43;;;;;;;17.95;8.40;;;;;;;;;;2081699;28;20172;-52
2022/05/08 05:16:43;;;;;;;21.77;9.13;;;;;;;;;;2081665;28;20207;-53
2022/05/08 05:17:43;;;;;;;27.25;9.25;;;;;;;;;;2069080;28;20240;-53
2022/05/08 05:18:43;;;;;;;15.55;8.13;;;;;;;;;;2079789;28;20251;-51
2022/05/08 05:19:44;;;;;;;21.02;8.77;;;;;;;;;;2081597;28;20212;-51
2022/05/08 05:20:45;;;;;;;23.77;9.13;;;;;;;;;;2081645;28;20351;-54
2022/05/08 05:21:45;;;;;;;17.67;9.32;;;;;;;;;;2081962;28;20202;-50
2022/05/08 05:22:46;;;;;;;20.02;8.82;;;;;;;;;;2072882;28;20225;-51
2022/05/08 05:23:46;;;;;;;15.30;8.20;;;;;;;;;;2077160;28;20222;-51
2022/05/08 05:24:46;;;;;;;17.30;8.55;;;;;;;;;;2072591;28;20176;-51
2022/05/08 05:25:47;;;;;;;17.00;7.68;;;;;;;;;;2083004;28;20511;-56
2022/05/08 05:26:47;;;;;;;19.30;7.82;;;;;;;;;;2082259;28;20555;-50
2022/05/08 05:27:47;;;;;;;17.23;8.50;;;;;;;;;;2083831;28;20164;-51
2022/05/08 05:28:48;;;;;;;19.73;9.52;;;;;;;;;;2075304;28;20683;-53
2022/05/08 05:29:48;;;;;;;23.55;8.80;;;;;;;;;;2081765;28;20255;-51
2022/05/08 05:30:48;;;;;;;17.08;8.18;;;;;;;;;;2072820;28;20658;-50
2022/05/08 05:31:48;;;;;;;20.45;8.63;;;;;;;;;;2072850;28;20238;-54
2022/05/08 05:32:49;;;;;;;17.48;8.88;;;;;;;;;;2073514;28;20586;-56
2022/05/08 05:33:49;;;;;;;14.65;7.88;;;;;;;;;;2072797;28;20695;-51
2022/05/08 05:34:49;;;;;;;18.27;8.00;;;;;;;;;;2081926;28;20168;-53
2022/05/08 05:35:50;;;;;;;16.27;7.72;;;;;;;;;;2072844;28;20198;-51
2022/05/08 05:36:50;;;;;;;16.00;8.25;;;;;;;;;;2072303;28;20179;-52
2022/05/08 05:37:50;;;;;;;18.42;7.53;;;;;;;;;;2079100;28;20192;-50
2022/05/08 05:38:50;;;;;;;22.02;9.02;;;;;;;;;;2071123;28;20178;-52
2022/05/08 05:39:51;;;;;;;17.10;8.25;;;;;;;;;;2064083;28;20185;-53
2022/05/08 05:40:51;;;;;;;26.05;8.90;;;;;;;;;;2071371;28;20205;-50
2022/05/08 05:41:51;;;;;;;15.18;7.63;;;;;;;;;;2078855;28;20177;-49
2022/05/08 05:42:52;;;;;;;19.85;8.20;;;;;;;;;;2070815;28;20179;-51
2022/05/08 05:43:53;;;;;;;14.98;8.23;;;;;;;;;;2072924;28;20177;-50
2022/05/08 05:44:54;;;;;;;17.00;7.90;;;;;;;;;;2080889;28;20275;-52
2022/05/08 05:48:34;;;;;;;15.98;7.38;;;;;;;;;;2076678;28;20650;-54
2022/05/08 05:49:34;;;;;;;19.02;7.93;;;;;;;;;;2079844;28;20230;-54
2022/05/08 05:50:35;;;;;;;15.68;8.23;;;;;;;;;;2080067;28;21570;-51
2022/05/08 05:51:35;;;;;;;19.52;8.38;;;;;;;;;;2080772;28;20188;-55
2022/05/08 05:52:36;;;;;;;15.50;7.65;;;;;;;;;;2080707;28;20169;-51
2022/05/08 05:53:37;;;;;;;23.05;8.98;;;;;;;;;;2076358;28;20281;-53
2022/05/08 05:54:37;;;;;;;15.57;8.30;;;;;;;;;;2081211;28;20235;-51
2022/05/08 05:55:37;;;;;;;16.17;8.70;;;;;;;;;;2079789;28;20181;-51
2022/05/08 05:56:39;;;;;;;24.17;7.97;;;;;;;;;;2080165;28;20291;-55
2022/05/08 05:57:39;;;;;;;19.23;8.00;;;;;;;;;;2081129;28;20230;-52
2022/05/08 05:58:39;;;;;;;12.60;8.23;;;;;;;;;;2070459;28;20380;-54
2022/05/08 05:59:39;;;;;;;17.13;7.63;;;;;;;;;;2072932;28;20621;-52
2022/05/08 06:00:40;;;;;;;15.40;8.60;;;;;;;;;;2084621;28;20211;-53
2022/05/08 06:01:40;;;;;;;15.88;7.45;;;;;;;;;;2078104;28;20184;-54
2022/05/08 06:02:43;;;;;;;13.05;6.75;;;;;;;;;;2081933;28;20259;-51
2022/05/08 06:03:43;;;;;;;16.30;7.00;;;;;;;;;;2076578;28;20225;-47
2022/05/08 06:04:43;;;;;;;13.05;7.88;;;;;;;;;;2080585;28;20241;-50
2022/05/08 06:05:44;;;;;;;13.70;6.90;;;;;;;;;;2076931;28;20200;-49